Time;durP1;ratioP1;P1;durP2;ratioP2;P2;SDS_P1;SDS_P2;PMS_P1;PMS_P2;Temp;Humidity;BMP_temperature;BMP_pressure;BME280_temperature;BME280_humidity;BME280_pressure;Samples;Min_cycle;Max_cycle;Signal;HPM_P1;HPM_P2
2022/09/19 00:01:20;;;;;;;1.00;0.70;;;;;;;9.52;89.95;97894.44;108390;1283;138656;-66
2022/09/19 00:03:51;;;;;;;0.80;0.80;;;;;;;9.52;89.70;97893.64;108642;1282;22445;-66
2022/09/19 00:06:18;;;;;;;0.70;0.60;;;;;;;9.50;89.32;97897.67;108628;1281;138312;-66
2022/09/19 00:08:45;;;;;;;;;;;;;;;9.50;89.31;97901.70;108777;1281;23146;-67
2022/09/19 00:11:14;;;;;;;1.00;0.70;;;;;;;9.50;89.13;97899.91;108563;1282;126375;-67
2022/09/19 00:13:47;;;;;;;0.60;0.50;;;;;;;9.50;89.28;97906.48;108520;1282;22560;-66
2022/09/19 00:16:23;;;;;;;0.50;0.50;;;;;;;9.50;89.12;97907.90;108567;1281;23600;-66
2022/09/19 00:18:51;;;;;;;1.00;0.50;;;;;;;9.50;88.97;97909.27;108530;1281;138956;-66
2022/09/19 00:21:22;;;;;;;0.70;0.70;;;;;;;9.49;88.93;97910.08;108671;1281;22457;-66
2022/09/19 00:26:34;;;;;;;0.40;0.40;;;;;;;9.48;88.86;97912.56;108716;1281;22499;-66
2022/09/19 00:29:02;;;;;;;2.00;0.50;;;;;;;9.47;89.09;97913.42;108558;1283;139346;-66
2022/09/19 00:31:29;;;;;;;1.00;0.60;;;;;;;9.46;89.20;97911.86;108469;1282;22861;-66
2022/09/19 00:33:56;;;;;;;0.50;0.50;;;;;;;9.46;89.28;97911.04;108505;1282;22435;-66
2022/09/19 00:36:22;;;;;;;;;;;;;;;9.45;89.41;97910.99;108405;1283;138031;-66
2022/09/19 00:38:49;;;;;;;5.40;0.60;;;;;;;9.44;89.52;97909.00;108474;1282;23416;-66
2022/09/19 00:41:18;;;;;;;0.60;0.50;;;;;;;9.43;89.67;97906.78;104466;1284;141371;-64
2022/09/19 00:44:23;;;;;;;0.90;0.50;;;;;;;9.41;89.81;97907.28;108601;1282;23260;-65
2022/09/19 00:46:51;;;;;;;1.00;0.60;;;;;;;9.38;90.02;97905.19;108528;1281;137628;-65
2022/09/19 00:49:18;;;;;;;0.60;0.60;;;;;;;9.38;90.38;97910.42;108651;1281;22463;-65
2022/09/19 00:51:50;;;;;;;1.50;1.10;;;;;;;9.38;90.44;97908.58;108600;1283;22551;-65
2022/09/19 00:54:40;;;;;;;1.00;0.70;;;;;;;9.39;90.85;97910.85;108519;1282;137722;-65
2022/09/19 00:57:08;;;;;;;1.00;0.90;;;;;;;9.39;91.09;97911.88;108305;1284;22494;-65
2022/09/19 00:59:36;;;;;;;1.30;0.90;;;;;;;9.39;91.28;97909.05;108332;1282;139093;-65
2022/09/19 01:02:04;;;;;;;0.80;0.70;;;;;;;9.40;91.55;97911.69;108228;1283;22518;-65
2022/09/19 01:04:35;;;;;;;1.20;1.00;;;;;;;9.41;91.76;97909.89;108512;1282;22553;-65
2022/09/19 01:07:24;;;;;;;1.90;1.10;;;;;;;9.44;92.09;97916.51;108541;1282;138221;-65
2022/09/19 01:10:13;;;;;;;1.80;0.90;;;;;;;9.47;92.31;97917.02;108576;1282;22478;-65
2022/09/19 01:12:52;;;;;;;2.90;1.00;;;;;;;9.49;92.60;97918.41;108417;1282;138437;-65
2022/09/19 01:15:28;;;;;;;0.90;0.90;;;;;;;9.51;92.74;97920.12;108387;1282;22465;-65
2022/09/19 01:17:58;;;;;;;1.30;1.20;;;;;;;9.53;92.95;97922.31;108381;1284;137773;-65
2022/09/19 01:20:50;;;;;;;1.20;1.10;;;;;;;9.57;92.97;97925.80;108504;1280;22445;-66
2022/09/19 01:23:53;;;;;;;4.10;1.40;;;;;;;9.59;93.39;97923.55;108437;1281;138296;-66
2022/09/19 01:26:43;;;;;;;1.90;1.30;;;;;;;9.61;93.40;97923.27;104442;1291;24410;-65
2022/09/19 01:29:22;;;;;;;1.80;1.30;;;;;;;9.64;93.47;97924.23;103495;1291;139214;-64
2022/09/19 01:31:52;;;;;;;3.00;1.50;;;;;;;9.66;93.52;97928.20;103590;1291;22589;-64
2022/09/19 01:34:24;;;;;;;3.50;1.10;;;;;;;9.68;93.55;97931.59;107602;1290;22549;-65
2022/09/19 01:37:12;;;;;;;2.20;1.40;;;;;;;9.70;93.71;97934.14;107242;1292;137708;-65
2022/09/19 01:39:41;;;;;;;2.30;1.30;;;;;;;9.72;93.78;97937.64;107571;1291;22730;-66
2022/09/19 01:42:11;;;;;;;4.30;1.20;;;;;;;9.74;93.67;97935.93;107473;1289;138808;-66
2022/09/19 01:44:38;;;;;;;3.20;2.10;;;;;;;9.76;93.84;97936.62;107576;1290;23384;-65
2022/09/19 01:47:11;;;;;;;2.40;1.70;;;;;;;9.78;93.91;97940.63;107588;1290;139038;-65
2022/09/19 01:49:53;;;;;;;2.80;1.60;;;;;;;9.80;93.80;97944.09;107615;1290;22563;-65
2022/09/19 01:52:48;;;;;;;4.90;2.20;;;;;;;9.82;93.86;97951.88;107658;1291;22661;-65
2022/09/19 01:55:42;;;;;;;8.00;1.80;;;;;;;9.84;94.05;97954.62;107668;1290;22472;-65
2022/09/19 01:58:21;;;;;;;2.00;1.70;;;;;;;9.85;94.07;97955.37;107630;1289;23564;-66
2022/09/19 02:00:57;;;;;;;1.60;1.40;;;;;;;9.85;94.14;97958.36;107382;1290;139313;-65
2022/09/19 02:03:27;;;;;;;2.30;1.50;;;;;;;9.85;94.00;97962.93;107931;1282;23280;-66
2022/09/19 02:06:06;;;;;;;2.60;1.40;;;;;;;9.85;93.95;97965.38;108536;1281;137900;-65
2022/09/19 02:08:46;;;;;;;1.10;0.90;;;;;;;9.84;93.89;97973.39;108567;1280;22427;-65
2022/09/19 02:11:19;;;;;;;2.00;1.10;;;;;;;9.83;93.21;97971.98;108309;1281;137906;-65
2022/09/19 02:13:54;;;;;;;1.00;0.80;;;;;;;9.83;93.11;97967.95;108827;1276;22435;-65
2022/09/19 02:16:25;;;;;;;1.20;0.80;;;;;;;9.84;92.78;97977.52;108870;1276;22924;-65
2022/09/19 02:18:54;;;;;;;1.40;1.00;;;;;;;9.85;92.50;97984.00;109007;1277;137560;-65
2022/09/19 02:21:38;;;;;;;1.40;0.80;;;;;;;9.85;92.28;97985.35;109066;1277;23142;-65
2022/09/19 02:24:08;;;;;;;1.10;1.00;;;;;;;9.86;92.29;97987.79;108657;1277;137833;-64
2022/09/19 02:26:35;;;;;;;3.40;1.20;;;;;;;9.88;92.24;97987.98;109070;1276;22509;-64
2022/09/19 02:29:02;;;;;;;1.60;1.20;;;;;;;9.88;92.28;97991.40;108896;1277;138191;-65
2022/09/19 02:31:30;;;;;;;1.60;1.30;;;;;;;9.90;92.19;97993.30;109147;1277;22411;-65
2022/09/19 02:33:59;;;;;;;5.40;1.70;;;;;;;9.91;92.19;97999.54;109160;1276;22501;-65
2022/09/19 02:36:46;;;;;;;2.20;1.50;;;;;;;9.93;92.14;98000.95;109019;1277;137820;-64
2022/09/19 02:39:19;;;;;;;1.40;1.30;;;;;;;9.93;91.90;98009.42;109086;1277;23359;-64
2022/09/19 02:42:34;;;;;;;1.80;1.60;;;;;;;9.92;91.98;98009.59;109044;1277;139930;-65
2022/09/19 02:45:08;;;;;;;3.10;2.10;;;;;;;9.90;92.13;98018.21;109181;1277;22535;-64
2022/09/19 02:47:48;;;;;;;2.20;2.00;;;;;;;9.88;92.13;98020.91;108734;1277;138948;-64
2022/09/19 02:50:27;;;;;;;2.80;1.70;;;;;;;9.86;92.18;98022.11;108831;1278;22546;-64
2022/09/19 02:52:54;;;;;;;2.60;1.60;;;;;;;9.85;92.38;98021.20;108863;1276;138216;-64
2022/09/19 02:55:25;;;;;;;2.80;2.10;;;;;;;9.85;92.31;98028.21;109058;1276;22390;-64
2022/09/19 02:57:54;;;;;;;4.40;2.60;;;;;;;9.83;92.69;98032.15;108942;1278;22440;-64
2022/09/19 03:00:21;;;;;;;2.00;1.80;;;;;;;9.83;92.76;98037.91;108585;1280;139185;-64
2022/09/19 03:06:09;;;;;;;4.10;2.30;;;;;;;9.82;93.12;98044.52;108108;1286;137932;-64
2022/09/19 03:08:36;;;;;;;2.90;2.30;;;;;;;9.82;92.97;98045.77;108356;1286;22563;-64
2022/09/19 03:11:07;;;;;;;3.20;2.20;;;;;;;9.83;93.13;98051.64;107789;1285;139941;-64
2022/09/19 03:13:36;;;;;;;3.00;2.40;;;;;;;9.83;93.04;98057.56;108098;1286;22495;-65
2022/09/19 03:16:06;;;;;;;3.00;2.30;;;;;;;9.83;93.23;98054.24;107961;1286;23669;-65
2022/09/19 03:18:35;;;;;;;3.70;2.20;;;;;;;9.83;93.14;98056.86;107865;1285;138107;-64
2022/09/19 03:21:03;;;;;;;6.30;2.50;;;;;;;9.84;93.14;98061.52;108040;1285;22455;-65
2022/09/19 03:23:33;;;;;;;3.60;2.60;;;;;;;9.85;93.28;98061.84;108252;1286;138079;-65
2022/09/19 03:26:01;;;;;;;4.60;2.30;;;;;;;9.85;92.98;98066.52;108068;1286;22341;-65
2022/09/19 03:28:28;;;;;;;2.70;2.20;;;;;;;9.86;92.95;98072.28;108246;1286;22504;-64
2022/09/19 03:30:59;;;;;;;6.10;3.30;;;;;;;9.86;93.12;98075.21;108086;1286;137675;-64
2022/09/19 03:33:26;;;;;;;3.30;2.60;;;;;;;9.87;93.07;98084.78;108280;1285;22487;-64
2022/09/19 03:35:56;;;;;;;3.80;2.30;;;;;;;9.87;92.96;98087.45;108069;1286;138193;-65
2022/09/19 03:38:23;;;;;;;6.00;2.20;;;;;;;9.87;92.95;98094.62;108297;1286;22471;-65
2022/09/19 03:40:50;;;;;;;2.80;2.10;;;;;;;9.88;92.91;98096.47;104164;1286;138980;-64
2022/09/19 03:43:17;;;;;;;4.30;2.60;;;;;;;9.88;92.98;98100.66;104492;1279;24289;-64
2022/09/19 03:45:44;;;;;;;2.40;2.20;;;;;;;9.89;93.08;98105.60;105120;1273;22565;-63
2022/09/19 03:48:11;;;;;;;5.10;3.00;;;;;;;9.89;92.93;98106.15;104736;1276;137920;-64
2022/09/19 03:50:37;;;;;;;;;;;;;;;9.88;92.90;98109.96;105028;1276;22546;-64
2022/09/19 03:53:10;;;;;;;5.10;2.70;;;;;;;9.88;92.81;98119.48;104764;1275;126292;-68
2022/09/19 03:55:37;;;;;;;2.70;2.50;;;;;;;9.88;92.78;98122.42;104998;1276;22572;-67
2022/09/19 03:58:05;;;;;;;9.80;3.10;;;;;;;9.87;92.71;98129.67;109282;1273;22484;-65
2022/09/19 04:00:32;;;;;;;2.80;2.50;;;;;;;9.87;92.62;98132.61;109293;1273;138156;-64
2022/09/19 04:02:59;;;;;;;;;;;;;;;9.88;92.59;98138.80;109455;1273;22481;-65
2022/09/19 04:05:27;;;;;;;6.40;2.60;;;;;;;9.88;92.48;98142.77;109335;1274;124255;-66
2022/09/19 04:07:54;;;;;;;;;;;;;;;9.88;92.28;98147.93;109415;1273;22467;-66
2022/09/19 04:10:21;;;;;;;3.60;2.60;;;;;;;9.90;92.24;98154.56;108639;1273;25709;-65
2022/09/19 04:12:48;;;;;;;4.80;2.70;;;;;;;9.89;92.08;98159.02;105060;1274;138983;-65
2022/09/19 04:15:16;;;;;;;5.40;2.30;;;;;;;9.90;91.89;98162.77;109385;1273;22489;-66
2022/09/19 04:17:43;;;;;;;4.00;2.60;;;;;;;9.92;91.86;98157.44;109176;1273;139042;-66
2022/09/19 04:20:13;;;;;;;3.00;2.50;;;;;;;9.93;91.65;98165.69;109332;1273;22471;-66
2022/09/19 04:23:02;;;;;;;7.80;2.80;;;;;;;9.95;91.43;98170.58;109255;1273;139805;-65
2022/09/19 04:25:57;;;;;;;3.70;2.50;;;;;;;9.96;91.60;98172.08;109282;1272;23271;-65
2022/09/19 04:28:32;;;;;;;5.60;2.60;;;;;;;9.97;91.17;98175.38;109292;1273;22442;-65
2022/09/19 04:30:59;;;;;;;;;;;;;;;9.99;91.14;98179.39;109218;1273;140096;-65
2022/09/19 04:33:26;;;;;;;4.10;2.70;;;;;;;9.99;90.84;98186.35;109205;1273;22436;-65
2022/09/19 04:36:00;;;;;;;4.50;2.50;;;;;;;10.00;90.77;98191.68;109084;1274;137971;-66
2022/09/19 04:38:30;;;;;;;4.20;2.50;;;;;;;10.02;90.80;98192.92;109333;1274;22472;-65
2022/09/19 04:40:57;;;;;;;5.30;2.70;;;;;;;10.03;90.59;98197.81;109257;1273;138357;-65
2022/09/19 04:43:29;;;;;;;3.90;2.50;;;;;;;10.04;90.64;98203.19;109408;1273;22446;-65
2022/09/19 04:46:06;;;;;;;6.20;2.70;;;;;;;10.06;90.45;98205.14;109403;1273;22560;-65
2022/09/19 04:48:41;;;;;;;4.40;2.60;;;;;;;10.07;90.27;98206.77;109233;1273;138000;-65
2022/09/19 04:51:08;;;;;;;;;;;;;;;10.08;90.29;98216.11;109408;1273;22490;-66
2022/09/19 04:53:38;;;;;;;3.80;2.30;;;;;;;10.09;90.54;98213.86;109338;1273;124812;-65
2022/09/19 04:56:06;;;;;;;8.60;3.20;;;;;;;10.11;90.43;98217.69;109418;1273;22412;-65
2022/09/19 04:58:34;;;;;;;3.20;2.50;;;;;;;10.12;90.35;98219.31;109388;1273;22474;-66
2022/09/19 05:01:04;;;;;;;5.70;2.70;;;;;;;10.12;90.47;98223.94;109409;1273;23357;-66
2022/09/19 05:03:31;;;;;;;4.40;3.00;;;;;;;10.14;90.31;98225.23;109496;1273;22445;-66
2022/09/19 05:05:59;;;;;;;4.00;2.60;;;;;;;10.16;90.33;98231.48;109271;1273;138936;-65
2022/09/19 05:08:30;;;;;;;5.70;2.60;;;;;;;10.17;90.12;98234.35;109336;1273;22511;-65
2022/09/19 05:11:03;;;;;;;4.10;2.60;;;;;;;10.18;90.00;98237.67;109318;1273;139144;-66
2022/09/19 05:13:31;;;;;;;3.90;2.70;;;;;;;10.18;90.00;98244.66;109465;1273;23690;-65
2022/09/19 05:16:00;;;;;;;5.90;2.90;;;;;;;10.18;89.65;98244.98;109308;1273;22443;-65
2022/09/19 05:18:34;;;;;;;5.00;2.90;;;;;;;10.19;89.93;98249.28;109376;1273;138662;-65
2022/09/19 05:21:06;;;;;;;4.30;3.10;;;;;;;10.21;89.80;98255.97;109389;1273;23293;-65
2022/09/19 05:23:33;;;;;;;3.90;2.80;;;;;;;10.22;89.70;98264.46;109350;1273;138421;-65
2022/09/19 05:26:04;;;;;;;4.00;2.70;;;;;;;10.23;89.76;98272.66;109347;1274;22454;-65
2022/09/19 05:28:31;;;;;;;3.30;2.90;;;;;;;10.25;89.66;98278.66;109549;1273;22571;-65
2022/09/19 05:30:57;;;;;;;;;;;;;;;10.27;89.31;98285.67;109337;1272;139825;-65
2022/09/19 05:33:27;;;;;;;5.60;3.10;;;;;;;10.28;89.29;98282.02;109428;1273;22547;-65
2022/09/19 05:36:00;;;;;;;3.70;3.20;;;;;;;10.29;89.46;98289.80;109298;1273;139820;-65
2022/09/19 05:38:56;;;;;;;7.70;4.00;;;;;;;10.32;89.40;98295.11;109233;1273;22606;-65
2022/09/19 05:41:42;;;;;;;6.30;3.00;;;;;;;10.32;89.35;98301.92;109324;1273;138274;-65
2022/09/19 05:44:16;;;;;;;4.10;3.10;;;;;;;10.33;89.43;98305.36;109329;1273;22466;-65
2022/09/19 05:46:46;;;;;;;5.10;2.80;;;;;;;10.33;89.16;98308.95;109318;1273;141371;-65
2022/09/19 05:49:13;;;;;;;4.00;3.00;;;;;;;10.34;89.13;98314.55;109491;1273;23185;-65
2022/09/19 05:51:39;;;;;;;;;;;;;;;10.34;89.36;98316.84;109528;1273;22486;-65
2022/09/19 05:54:11;;;;;;;4.50;3.80;;;;;;;10.35;89.32;98325.31;109426;1273;124624;-65
2022/09/19 05:56:57;;;;;;;4.10;3.00;;;;;;;10.36;89.16;98333.80;105761;1272;22577;-66
2022/09/19 05:59:25;;;;;;;5.50;3.80;;;;;;;10.36;89.30;98336.74;109402;1274;139039;-66
2022/09/19 06:01:52;;;;;;;8.30;3.80;;;;;;;10.38;89.29;98339.23;109423;1273;22484;-67
2022/09/19 06:04:35;;;;;;;9.70;3.70;;;;;;;10.39;89.25;98345.92;109488;1271;22512;-67
2022/09/19 06:07:08;;;;;;;9.30;3.70;;;;;;;10.38;89.20;98350.73;109470;1271;23015;-66
2022/09/19 06:09:36;;;;;;;6.60;3.30;;;;;;;10.39;89.56;98348.65;109286;1274;22448;-66
2022/09/19 06:12:03;;;;;;;5.50;3.60;;;;;;;10.40;89.56;98355.42;109158;1274;139859;-66
2022/09/19 06:14:31;;;;;;;5.80;3.00;;;;;;;10.42;89.50;98358.67;109356;1273;22499;-65
2022/09/19 06:17:01;;;;;;;4.50;3.50;;;;;;;10.44;89.52;98368.58;109398;1274;141056;-65
2022/09/19 06:19:49;;;;;;;5.20;3.60;;;;;;;10.46;89.50;98374.39;109469;1271;22480;-65
2022/09/19 06:22:34;;;;;;;5.70;2.80;;;;;;;10.50;89.38;98376.44;109444;1274;22446;-65
2022/09/19 06:25:03;;;;;;;4.90;3.60;;;;;;;10.53;89.61;98388.70;109285;1271;139425;-66
2022/09/19 06:27:30;;;;;;;4.10;3.30;;;;;;;10.56;89.45;98385.45;109360;1271;22625;-67
2022/09/19 06:29:58;;;;;;;7.90;3.50;;;;;;;10.59;89.34;98390.73;109429;1271;138471;-67
2022/09/19 06:32:34;;;;;;;10.20;5.20;;;;;;;10.63;89.23;98393.97;109367;1271;22423;-66
2022/09/19 06:35:08;;;;;;;8.10;4.30;;;;;;;10.68;88.93;98401.70;109134;1271;139581;-67
2022/09/19 06:37:35;;;;;;;4.70;3.10;;;;;;;10.74;88.76;98405.58;109474;1271;22229;-66
2022/09/19 06:40:04;;;;;;;7.20;4.40;;;;;;;10.79;88.87;98408.91;109364;1274;22497;-65
2022/09/19 06:43:00;;;;;;;6.60;3.70;;;;;;;10.87;88.57;98415.10;109327;1274;140000;-66
2022/09/19 06:45:56;;;;;;;3.70;3.10;;;;;;;10.96;88.40;98412.95;109456;1271;22275;-66
2022/09/19 06:48:55;;;;;;;4.70;2.90;;;;;;;11.07;88.03;98423.98;109272;1271;140339;-66
2022/09/19 06:51:36;;;;;;;4.40;2.70;;;;;;;11.15;87.50;98425.13;109357;1271;22504;-66
2022/09/19 06:54:03;;;;;;;5.90;3.20;;;;;;;11.21;87.22;98427.80;109267;1274;139327;-66
2022/09/19 06:56:30;;;;;;;3.90;2.50;;;;;;;11.25;86.58;98430.36;109289;1274;22446;-66
2022/09/19 06:58:57;;;;;;;5.00;2.20;;;;;;;11.29;85.84;98429.02;109376;1271;139248;-65
2022/09/19 07:01:26;;;;;;;6.50;3.80;;;;;;;11.33;85.44;98426.58;109178;1273;22402;-65
2022/09/19 07:03:53;;;;;;;7.70;2.60;;;;;;;11.36;85.17;98433.30;109394;1274;22463;-64
2022/09/19 07:06:31;;;;;;;4.70;2.90;;;;;;;11.41;84.92;98437.83;109220;1274;138244;-65
2022/09/19 07:09:03;;;;;;;5.90;3.30;;;;;;;11.44;84.21;98446.36;109348;1274;22439;-65
2022/09/19 07:11:30;;;;;;;7.10;3.70;;;;;;;11.44;83.98;98447.23;109377;1271;140357;-65
2022/09/19 07:13:56;;;;;;;4.10;2.70;;;;;;;11.46;83.85;98454.47;109550;1271;22418;-65
2022/09/19 07:16:23;;;;;;;;;;;;;;;11.47;83.60;98460.56;109438;1271;22468;-65
2022/09/19 07:18:50;;;;;;;7.10;2.30;;;;;;;11.48;83.50;98461.27;109439;1271;126305;-67
2022/09/19 07:21:35;;;;;;;11.00;2.80;;;;;;;11.49;83.31;98459.23;109447;1274;22497;-65
2022/09/19 07:24:07;;;;;;;3.80;2.40;;;;;;;11.54;83.82;98462.73;109225;1274;138566;-65
2022/09/19 07:26:59;;;;;;;7.20;2.70;;;;;;;11.62;83.25;98460.55;109275;1274;22511;-65
2022/09/19 07:29:27;;;;;;;5.50;2.40;;;;;;;11.71;82.85;98466.13;109267;1272;139024;-66
2022/09/19 07:31:54;;;;;;;3.20;2.40;;;;;;;11.74;82.21;98462.01;109525;1271;23272;-66
2022/09/19 07:34:22;;;;;;;3.80;2.50;;;;;;;11.76;81.63;98471.02;109436;1271;22432;-66
2022/09/19 07:36:52;;;;;;;5.50;2.10;;;;;;;11.75;81.25;98472.54;109348;1271;138642;-66
2022/09/19 07:39:19;;;;;;;3.60;2.40;;;;;;;11.74;81.38;98476.30;109483;1274;22472;-65
2022/09/19 07:42:12;;;;;;;3.80;2.40;;;;;;;11.72;80.88;98483.14;109371;1271;138128;-66
2022/09/19 07:44:58;;;;;;;3.10;2.60;;;;;;;11.68;81.09;98489.45;109533;1274;22451;-66
2022/09/19 07:47:47;;;;;;;4.00;2.60;;;;;;;11.64;80.75;98498.63;109456;1271;138753;-65
2022/09/19 07:50:30;;;;;;;4.20;2.30;;;;;;;11.58;80.69;98501.51;109363;1272;23256;-65
2022/09/19 07:53:11;;;;;;;4.70;3.50;;;;;;;11.55;80.90;98503.94;109228;1274;139188;-65
2022/09/19 07:55:41;;;;;;;;;;;;;;;11.53;80.97;98507.23;109514;1271;23211;-65
2022/09/19 07:58:10;;;;;;;4.80;2.90;;;;;;;11.52;80.94;98512.14;109505;1271;22487;-65
2022/09/19 08:00:41;;;;;;;4.40;3.10;;;;;;;11.49;80.88;98515.10;109343;1271;138301;-65
2022/09/19 08:03:11;;;;;;;4.60;2.40;;;;;;;11.49;80.86;98519.73;109443;1271;22444;-65
2022/09/19 08:05:40;;;;;;;4.90;2.20;;;;;;;11.49;80.95;98524.81;109341;1271;138713;-65
2022/09/19 08:08:08;;;;;;;4.50;2.70;;;;;;;11.49;81.02;98525.85;109508;1271;22456;-65
2022/09/19 08:10:35;;;;;;;5.60;2.80;;;;;;;11.52;81.10;98531.01;109320;1271;23259;-65
2022/09/19 08:13:03;;;;;;;6.90;3.40;;;;;;;11.55;81.18;98530.84;109359;1274;139074;-65
2022/09/19 08:15:30;;;;;;;5.80;3.20;;;;;;;11.60;80.98;98534.36;109413;1271;22571;-65
2022/09/19 08:17:59;;;;;;;4.60;3.60;;;;;;;11.66;80.90;98540.30;109275;1271;139162;-65
2022/09/19 08:20:27;;;;;;;4.50;3.30;;;;;;;11.71;80.28;98540.51;109534;1271;22568;-65
2022/09/19 08:23:16;;;;;;;3.20;2.60;;;;;;;11.73;80.06;98543.10;109303;1271;139962;-65
2022/09/19 08:25:46;;;;;;;5.10;3.00;;;;;;;11.76;79.89;98543.10;109427;1271;22439;-65
2022/09/19 08:28:14;;;;;;;3.70;2.90;;;;;;;11.78;79.59;98543.31;109464;1271;22600;-65
2022/09/19 08:30:43;;;;;;;5.30;3.50;;;;;;;11.80;78.93;98549.90;109327;1274;138908;-66
2022/09/19 08:33:10;;;;;;;4.20;2.70;;;;;;;11.80;78.75;98547.11;109452;1271;22457;-65
2022/09/19 08:35:41;;;;;;;4.40;2.90;;;;;;;11.80;78.44;98546.63;109440;1271;138233;-64
2022/09/19 08:38:13;;;;;;;7.70;3.40;;;;;;;11.82;78.62;98546.89;109366;1274;22456;-64
2022/09/19 08:40:40;;;;;;;6.20;2.90;;;;;;;11.84;78.43;98549.40;109282;1274;138485;-65
2022/09/19 08:43:17;;;;;;;4.10;2.70;;;;;;;11.88;78.13;98549.30;109443;1273;22464;-65
2022/09/19 08:46:07;;;;;;;6.50;3.40;;;;;;;11.93;78.04;98557.17;109192;1274;22650;-64
2022/09/19 08:48:58;;;;;;;5.40;2.90;;;;;;;12.00;77.60;98560.52;109338;1271;138043;-65
2022/09/19 08:51:52;;;;;;;6.10;2.80;;;;;;;12.05;77.22;98561.84;109281;1274;22516;-65
2022/09/19 08:54:30;;;;;;;5.50;2.70;;;;;;;12.08;76.96;98565.90;109156;1274;138274;-65
2022/09/19 08:56:59;;;;;;;5.50;3.10;;;;;;;12.10;76.94;98571.73;109475;1271;22418;-65
2022/09/19 08:59:36;;;;;;;8.60;3.60;;;;;;;12.14;77.23;98573.34;109199;1271;138749;-65
2022/09/19 09:02:36;;;;;;;5.80;2.40;;;;;;;12.21;76.57;98573.07;109344;1272;22557;-66
2022/09/19 09:05:39;;;;;;;9.50;3.40;;;;;;;12.28;75.89;98572.80;109254;1274;138334;-64
2022/09/19 09:08:14;;;;;;;3.90;2.60;;;;;;;12.34;75.82;98579.89;109400;1271;22540;-66
2022/09/19 09:11:18;;;;;;;4.60;2.80;;;;;;;12.38;75.12;98580.94;109247;1274;139728;-67
2022/09/19 09:14:19;;;;;;;5.00;2.80;;;;;;;12.40;74.73;98591.90;109479;1271;22432;-66
2022/09/19 09:16:56;;;;;;;5.20;3.10;;;;;;;12.41;74.82;98593.48;109189;1273;138021;-66
2022/09/19 09:19:42;;;;;;;6.30;3.20;;;;;;;12.41;74.66;98599.20;109435;1271;23369;-65
2022/09/19 09:22:17;;;;;;;4.80;3.10;;;;;;;12.41;74.62;98604.80;109447;1271;22423;-66
2022/09/19 09:24:51;;;;;;;7.00;3.00;;;;;;;12.39;74.17;98605.23;109386;1271;139083;-65
2022/09/19 09:27:48;;;;;;;7.50;3.40;;;;;;;12.38;74.24;98615.02;106727;1273;24240;-64
2022/09/19 09:30:17;;;;;;;6.50;3.20;;;;;;;12.39;73.98;98618.30;104995;1274;139813;-64
2022/09/19 09:32:56;;;;;;;8.40;4.20;;;;;;;12.40;73.73;98617.04;105183;1271;24502;-64
2022/09/19 09:35:33;;;;;;;3.90;3.20;;;;;;;12.42;73.60;98621.31;105181;1277;138476;-65
2022/09/19 09:38:25;;;;;;;7.40;4.10;;;;;;;12.46;73.92;98623.83;105634;1272;22553;-64
2022/09/19 09:44:38;;;;;;;9.30;3.90;;;;;;;12.57;73.84;98621.70;109376;1271;23029;-65
2022/09/19 09:47:19;;;;;;;7.80;4.40;;;;;;;12.65;73.96;98616.70;109220;1271;137719;-66
2022/09/19 09:49:46;;;;;;;6.90;3.50;;;;;;;12.74;74.17;98620.52;109474;1271;22511;-65
2022/09/19 09:52:26;;;;;;;7.30;4.70;;;;;;;12.83;73.97;98620.51;109326;1271;22468;-65
2022/09/19 09:57:50;;;;;;;5.60;3.00;;;;;;;12.97;72.09;98620.65;109501;1274;22502;-65
2022/09/19 10:03:34;;;;;;;12.30;4.70;;;;;;;13.13;72.40;98627.89;109380;1274;23220;-65
2022/09/19 10:06:12;;;;;;;17.60;5.80;;;;;;;13.26;71.55;98633.03;109191;1274;139420;-65
2022/09/19 10:09:00;;;;;;;7.10;3.10;;;;;;;13.35;71.11;98633.83;109299;1274;22467;-65
2022/09/19 10:11:45;;;;;;;8.70;3.60;;;;;;;13.46;70.77;98635.27;109317;1274;137403;-65
2022/09/19 10:14:35;;;;;;;3.60;2.40;;;;;;;13.60;69.71;98639.92;109268;1271;23230;-66
2022/09/19 10:17:16;;;;;;;6.00;2.50;;;;;;;13.67;67.95;98638.56;109200;1271;138906;-65
2022/09/19 10:19:50;;;;;;;4.40;2.00;;;;;;;13.68;66.98;98643.90;109323;1274;23500;-65
2022/09/19 10:22:16;;;;;;;2.90;2.20;;;;;;;13.67;66.57;98649.13;109408;1274;22468;-65
2022/09/19 10:24:58;;;;;;;4.60;2.30;;;;;;;13.65;66.38;98654.80;109346;1271;137316;-65
2022/09/19 10:27:31;;;;;;;8.00;3.40;;;;;;;13.62;65.45;98652.42;109313;1274;22478;-65
2022/09/19 10:30:25;;;;;;;6.80;2.80;;;;;;;13.60;65.26;98653.83;109361;1271;137283;-65
2022/09/19 10:32:54;;;;;;;4.80;2.20;;;;;;;13.60;65.35;98657.48;109540;1272;23220;-65
2022/09/19 10:35:54;;;;;;;8.80;2.50;;;;;;;13.67;65.36;98660.78;109040;1274;137216;-65
2022/09/19 10:38:23;;;;;;;7.40;3.20;;;;;;;13.74;65.38;98659.23;109440;1271;22560;-65
2022/09/19 10:40:52;;;;;;;6.90;3.90;;;;;;;13.82;65.46;98661.45;109412;1274;139691;-65
2022/09/19 10:43:21;;;;;;;5.80;3.10;;;;;;;13.92;64.98;98662.38;109491;1271;22472;-66
2022/09/19 10:45:50;;;;;;;8.40;2.70;;;;;;;14.01;64.30;98665.93;109526;1271;22458;-65
2022/09/19 10:48:25;;;;;;;5.50;2.50;;;;;;;14.04;63.35;98669.39;109208;1271;138364;-65
2022/09/19 10:50:52;;;;;;;5.90;2.40;;;;;;;14.04;62.71;98676.51;109269;1271;22447;-65
2022/09/19 10:53:32;;;;;;;4.50;2.70;;;;;;;14.01;62.39;98680.78;109292;1274;137598;-67
2022/09/19 10:56:04;;;;;;;5.90;2.80;;;;;;;13.97;62.48;98684.16;109343;1274;23101;-67
2022/09/19 10:58:35;;;;;;;6.10;2.40;;;;;;;13.94;62.59;98688.46;109285;1274;22462;-65
2022/09/19 11:01:21;;;;;;;4.90;2.30;;;;;;;13.92;62.47;98691.30;109470;1275;23416;-66
2022/09/19 11:04:04;;;;;;;5.90;2.50;;;;;;;13.89;61.87;98695.83;109393;1273;22465;-65
2022/09/19 11:06:32;;;;;;;6.30;3.00;;;;;;;13.89;62.35;98694.52;109316;1273;139421;-66
2022/09/19 11:09:00;;;;;;;7.80;3.30;;;;;;;13.91;62.61;98693.22;109370;1274;22423;-64
2022/09/19 11:11:37;;;;;;;6.00;2.70;;;;;;;13.97;62.83;98693.86;108282;1273;1630282;-65
2022/09/19 11:16:25;;;;;;;5.90;2.60;;;;;;;14.14;62.05;98703.89;102098;1309;545225;-65
2022/09/19 11:19:16;;;;;;;4.40;2.50;;;;;;;14.20;60.75;98712.33;107306;1291;137937;-64
2022/09/19 11:21:49;;;;;;;4.50;2.60;;;;;;;14.22;60.42;98717.02;107412;1292;22561;-65
2022/09/19 11:24:22;;;;;;;8.40;2.20;;;;;;;14.19;60.48;98719.14;107323;1293;137570;-64
2022/09/19 11:27:13;;;;;;;3.60;2.30;;;;;;;14.19;60.86;98726.32;107213;1293;22521;-65
2022/09/19 11:30:10;;;;;;;6.90;2.90;;;;;;;14.22;61.41;98726.27;106513;1290;1467991;-64
2022/09/19 11:32:57;;;;;;;3.70;2.00;;;;;;;14.24;61.47;98734.95;107584;1289;22477;-65
2022/09/19 11:36:00;;;;;;;9.00;2.60;;;;;;;14.22;60.34;98736.26;107955;1288;137146;-65
2022/09/19 11:38:40;;;;;;;6.10;3.00;;;;;;;14.15;60.49;98737.98;108510;1282;23113;-65
2022/09/19 11:41:36;;;;;;;3.60;1.90;;;;;;;14.11;60.71;98741.98;108388;1284;137026;-65
2022/09/19 11:44:23;;;;;;;4.20;2.40;;;;;;;14.06;60.70;98742.48;108560;1281;22445;-65
2022/09/19 11:47:16;;;;;;;6.00;2.30;;;;;;;14.00;60.49;98742.26;108433;1282;137232;-65
2022/09/19 11:49:52;;;;;;;4.40;2.70;;;;;;;13.94;60.77;98748.77;108561;1282;23273;-65
2022/09/19 11:52:37;;;;;;;5.40;2.10;;;;;;;13.90;61.11;98751.18;108555;1282;22406;-65
2022/09/19 11:55:30;;;;;;;6.30;2.90;;;;;;;13.86;61.37;98755.50;108542;1281;22337;-65
2022/09/19 11:58:18;;;;;;;7.90;2.70;;;;;;;13.85;61.95;98755.17;107791;1290;22517;-65
2022/09/19 12:01:05;;;;;;;9.50;2.90;;;;;;;13.85;62.18;98752.30;107667;1288;138506;-64
2022/09/19 12:03:35;;;;;;;9.30;2.90;;;;;;;13.87;62.09;98745.20;107835;1288;22297;-65
2022/09/19 12:06:16;;;;;;;6.30;2.40;;;;;;;13.90;62.37;98747.73;107760;1288;137384;-65
2022/09/19 12:09:22;;;;;;;8.70;2.50;;;;;;;13.95;62.39;98755.39;107826;1287;22615;-64
2022/09/19 12:12:21;;;;;;;10.20;2.70;;;;;;;14.00;62.29;98749.12;107794;1287;137704;-65
2022/09/19 12:15:14;;;;;;;6.40;2.60;;;;;;;14.06;62.82;98748.58;107852;1287;22449;-65
2022/09/19 12:17:46;;;;;;;6.50;2.80;;;;;;;14.12;62.42;98748.19;107869;1287;137526;-64
2022/09/19 12:20:37;;;;;;;6.30;2.00;;;;;;;14.19;62.41;98751.79;107628;1287;22464;-64
2022/09/19 12:26:19;;;;;;;3.60;1.70;;;;;;;14.25;60.76;98749.46;107807;1287;22483;-65